Time;durP1;ratioP1;P1;durP2;ratioP2;P2;SDS_P1;SDS_P2;PMS_P1;PMS_P2;Temp;Humidity;BMP_temperature;BMP_pressure;BME280_temperature;BME280_humidity;BME280_pressure;Samples;Min_cycle;Max_cycle;Signal;HPM_P1;HPM_P2
2022/05/22 00:00:16;;;;;;;15.93;7.60;;;;;;;;;;5131289;27;20436;-78
2022/05/22 00:02:43;;;;;;;17.40;7.72;;;;;;;;;;5110698;27;20457;-77
2022/05/22 00:05:11;;;;;;;15.48;7.53;;;;;;;;;;5114416;28;20452;-77
2022/05/22 00:07:37;;;;;;;15.20;7.77;;;;;;;;;;5102907;28;20443;-76
2022/05/22 00:10:04;;;;;;;18.92;8.10;;;;;;;;;;5117588;28;21031;-77
2022/05/22 00:12:30;;;;;;;13.23;7.47;;;;;;;;;;5114409;28;20434;-77
2022/05/22 00:14:56;;;;;;;14.63;8.00;;;;;;;;;;5112863;27;20422;-78
2022/05/22 00:17:22;;;;;;;14.48;7.70;;;;;;;;;;5141145;27;20437;-77
2022/05/22 00:19:48;;;;;;;15.93;7.72;;;;;;;;;;5120356;27;20423;-77
2022/05/22 00:22:14;;;;;;;17.02;7.50;;;;;;;;;;5093370;27;20447;-77
2022/05/22 00:24:40;;;;;;;19.35;8.15;;;;;;;;;;5100425;28;20446;-76
2022/05/22 00:27:07;;;;;;;14.30;7.88;;;;;;;;;;5091919;27;20410;-78
2022/05/22 00:29:33;;;;;;;16.13;8.45;;;;;;;;;;5124787;27;20404;-76
2022/05/22 00:31:59;;;;;;;18.37;9.00;;;10.20;99.90;;;;;;5083692;27;20491;-77
2022/05/22 00:34:25;;;;;;;18.27;8.50;;;;;;;;;;5129900;27;20446;-77
2022/05/22 00:36:52;;;;;;;16.92;8.20;;;;;;;;;;5135304;27;20422;-77
2022/05/22 00:39:17;;;;;;;15.98;8.50;;;10.50;99.90;;;;;;5117555;28;20956;-77
2022/05/22 00:41:47;;;;;;;18.20;8.47;;;;;;;;;;5104592;28;20433;-77
2022/05/22 00:44:13;;;;;;;18.10;8.27;;;;;;;;;;5124097;27;20427;-77
2022/05/22 00:46:39;;;;;;;20.80;8.68;;;;;;;;;;5141654;27;20403;-78
2022/05/22 00:49:09;;;;;;;16.08;8.07;;;;;;;;;;5136957;27;20678;-78
2022/05/22 00:51:40;;;;;;;17.15;8.63;;;10.40;99.90;;;;;;5122211;28;20467;-78
2022/05/22 00:54:36;;;;;;;19.27;8.50;;;;;;;;;;5119416;27;20837;-77
2022/05/22 00:57:05;;;;;;;21.77;9.70;;;;;;;;;;5032442;28;20479;-78
2022/05/22 00:59:37;;;;;;;17.87;9.10;;;10.30;99.90;;;;;;5119531;28;20406;-78
2022/05/22 01:02:04;;;;;;;17.27;8.80;;;10.30;99.90;;;;;;5112107;27;20429;-78
2022/05/22 01:04:32;;;;;;;17.10;8.70;;;;;;;;;;5126608;27;20455;-77
2022/05/22 01:06:58;;;;;;;15.45;8.18;;;;;;;;;;5098080;28;20423;-78
2022/05/22 01:09:25;;;;;;;15.25;8.05;;;;;;;;;;5119074;28;20484;-78
2022/05/22 01:11:52;;;;;;;14.82;8.32;;;;;;;;;;5124033;28;20487;-78
2022/05/22 01:14:21;;;;;;;15.82;8.27;;;;;;;;;;5114940;27;22555;-78
2022/05/22 01:16:48;;;;;;;15.88;8.23;;;;;;;;;;5109005;27;22094;-78
2022/05/22 01:19:21;;;;;;;15.18;7.90;;;10.00;99.90;;;;;;5142735;27;20406;-77
2022/05/22 01:22:00;;;;;;;15.77;8.35;;;;;;;;;;5138284;27;20394;-78
2022/05/22 01:24:27;;;;;;;16.03;8.07;;;;;;;;;;5125448;27;20440;-78
2022/05/22 01:26:54;;;;;;;13.85;8.13;;;;;;;;;;5127936;27;20429;-77
2022/05/22 01:29:20;;;;;;;13.32;7.47;;;;;;;;;;5140292;27;20422;-78
2022/05/22 01:31:46;;;;;;;13.52;8.15;;;;;;;;;;5137472;27;20404;-78
2022/05/22 01:34:12;;;;;;;16.23;7.70;;;;;;;;;;5120223;27;20410;-77
2022/05/22 01:36:39;;;;;;;13.07;7.35;;;;;;;;;;5123465;27;20553;-77
2022/05/22 01:39:05;;;;;;;13.75;7.25;;;;;;;;;;5130533;27;20424;-77
2022/05/22 01:41:31;;;;;;;14.07;7.53;;;;;;;;;;5126932;27;20436;-78
2022/05/22 01:43:57;;;;;;;13.33;8.03;;;;;;;;;;5090795;27;20505;-77
2022/05/22 01:46:23;;;;;;;16.30;7.75;;;;;;;;;;5125232;27;20430;-77
2022/05/22 01:48:49;;;;;;;14.55;7.65;;;;;;;;;;5085646;28;20406;-77
2022/05/22 01:51:16;;;;;;;18.73;8.50;;;;;;;;;;5082212;28;20514;-78
2022/05/22 01:53:42;;;;;;;18.02;8.88;;;;;;;;;;5103206;28;20417;-78
2022/05/22 01:56:08;;;;;;;21.27;8.57;;;;;;;;;;5131035;27;20447;-78
2022/05/22 01:58:34;;;;;;;15.50;8.13;;;;;;;;;;5125149;27;20986;-78
2022/05/22 02:01:00;;;;;;;15.63;8.10;;;;;;;;;;5120281;27;20839;-78
2022/05/22 02:03:26;;;;;;;19.48;8.68;;;;;;;;;;5110385;27;20412;-78
2022/05/22 02:05:53;;;;;;;19.58;8.75;;;;;;;;;;5103660;28;20408;-78
2022/05/22 02:08:19;;;;;;;16.73;8.75;;;;;;;;;;5128158;27;20422;-78
2022/05/22 02:10:45;;;;;;;17.90;8.57;;;;;;;;;;5117659;27;20453;-77
2022/05/22 02:13:11;;;;;;;16.42;8.43;;;;;;;;;;5150486;27;20458;-78
2022/05/22 02:15:38;;;;;;;16.70;8.52;;;;;;;;;;5117432;27;20501;-78
2022/05/22 02:18:04;;;;;;;17.42;8.05;;;;;;;;;;5132028;27;20435;-79
2022/05/22 02:20:30;;;;;;;14.98;8.57;;;;;;;;;;5110156;27;20421;-78
2022/05/22 02:22:57;;;;;;;19.50;9.07;;;;;;;;;;5142468;27;20493;-77
2022/05/22 02:25:29;;;;;;;16.13;8.50;;;9.60;99.90;;;;;;5129704;27;20509;-78
2022/05/22 02:27:56;;;;;;;14.38;8.88;;;;;;;;;;5140459;27;20411;-78
2022/05/22 02:30:24;;;;;;;18.08;9.15;;;;;;;;;;5120374;27;20410;-78
2022/05/22 02:32:50;;;;;;;19.52;8.50;;;;;;;;;;5121490;28;20915;-78
2022/05/22 02:35:17;;;;;;;18.73;8.55;;;;;;;;;;5117249;27;20421;-78
2022/05/22 02:37:51;;;;;;;17.33;8.98;;;;;;;;;;5128911;27;20516;-79
2022/05/22 02:40:18;;;;;;;16.05;9.30;;;;;;;;;;5104865;27;20445;-78
2022/05/22 02:42:46;;;;;;;18.85;8.90;;;;;;;;;;5125600;27;20429;-79
2022/05/22 02:45:12;;;;;;;17.83;9.23;;;;;;;;;;5138849;27;20414;-79
2022/05/22 02:47:38;;;;;;;16.27;8.90;;;;;;;;;;5126026;27;20404;-76
2022/05/22 02:50:05;;;;;;;17.98;9.10;;;;;;;;;;5107096;27;20418;-78
2022/05/22 02:52:31;;;;;;;22.10;9.55;;;;;;;;;;5111120;27;20567;-78
2022/05/22 02:54:57;;;;;;;17.92;9.25;;;;;;;;;;5108828;28;20417;-78
2022/05/22 02:57:25;;;;;;;17.58;8.63;;;9.20;99.90;;;;;;5121012;27;20422;-78
2022/05/22 02:59:52;;;;;;;16.83;8.77;;;9.20;99.90;;;;;;5099777;28;20465;-77
2022/05/22 03:02:18;;;;;;;16.17;8.30;;;;;;;;;;5128828;27;20419;-78
2022/05/22 03:04:44;;;;;;;16.03;8.47;;;9.20;99.90;;;;;;5103704;28;20454;-77
2022/05/22 03:07:12;;;;;;;18.05;9.10;;;;;;;;;;5108680;27;20433;-77
2022/05/22 03:09:39;;;;;;;15.83;9.00;;;9.10;99.90;;;;;;5120652;27;20507;-77
2022/05/22 03:12:06;;;;;;;14.25;8.15;;;;;;;;;;5097504;28;20425;-77
2022/05/22 03:14:32;;;;;;;15.63;8.15;;;;;;;;;;5094126;28;20422;-77
2022/05/22 03:16:58;;;;;;;13.15;8.05;;;8.80;99.90;;;;;;5135611;27;20426;-77
2022/05/22 03:19:24;;;;;;;16.67;8.27;;;;;;;;;;5131795;27;20410;-78
2022/05/22 03:21:50;;;;;;;14.47;7.90;;;;;;;;;;5106272;28;20440;-77
2022/05/22 03:24:16;;;;;;;12.57;7.45;;;;;;;;;;5088590;27;20439;-77
2022/05/22 03:26:42;;;;;;;14.85;7.88;;;;;;;;;;5121441;27;20443;-77
2022/05/22 03:29:08;;;;;;;12.70;7.63;;;8.80;99.90;;;;;;5142092;27;20423;-77
2022/05/22 03:31:34;;;;;;;19.77;9.25;;;;;;;;;;5113032;28;20429;-78
2022/05/22 03:34:00;;;;;;;14.82;9.30;;;;;;;;;;5093906;28;20912;-77
2022/05/22 03:36:26;;;;;;;19.38;9.70;;;;;;;;;;5143306;27;20426;-77
2022/05/22 03:38:52;;;;;;;16.75;9.40;;;;;;;;;;5105598;28;20421;-77
2022/05/22 03:41:18;;;;;;;19.38;9.93;;;8.90;99.90;;;;;;5066429;28;20440;-77
2022/05/22 03:43:44;;;;;;;18.67;9.60;;;8.90;99.90;;;;;;5090881;28;20468;-78
2022/05/22 03:46:09;;;;;;;18.45;9.68;;;9.00;99.90;;;;;;5111258;27;20414;-77
2022/05/22 03:48:36;;;;;;;14.30;8.90;;;;;;;;;;5102346;27;20442;-78
2022/05/22 03:51:02;;;;;;;15.55;9.70;;;;;;;;;;5138926;27;20464;-77
2022/05/22 03:53:28;;;;;;;17.80;9.18;;;;;;;;;;5093373;27;20403;-78
2022/05/22 03:55:54;;;;;;;18.95;9.80;;;;;;;;;;5117131;27;20422;-78
2022/05/22 03:58:20;;;;;;;16.83;9.52;;;;;;;;;;5151562;27;20422;-78
2022/05/22 04:00:46;;;;;;;17.00;9.32;;;9.00;99.90;;;;;;5141180;27;20403;-78
2022/05/22 04:03:12;;;;;;;17.45;9.30;;;;;;;;;;5102014;27;20887;-78
2022/05/22 04:05:38;;;;;;;20.38;10.73;;;9.00;99.90;;;;;;5117822;27;20451;-77
2022/05/22 04:08:04;;;;;;;18.70;10.48;;;;;;;;;;5120975;27;20450;-78
2022/05/22 04:10:30;;;;;;;20.73;10.68;;;;;;;;;;5126103;27;20436;-77
2022/05/22 04:12:56;;;;;;;18.38;10.40;;;;;;;;;;5125316;27;20415;-78
2022/05/22 04:15:23;;;;;;;20.25;11.05;;;;;;;;;;5119417;27;21721;-78
2022/05/22 04:17:49;;;;;;;21.75;11.00;;;;;;;;;;5135142;27;20411;-77
2022/05/22 04:20:16;;;;;;;21.05;11.05;;;;;;;;;;5124259;27;20461;-77
2022/05/22 04:25:27;;;;;;;21.05;11.15;;;9.40;99.90;;;;;;5101568;28;20434;-77
2022/05/22 04:27:53;;;;;;;18.33;11.15;;;;;;;;;;5114710;27;20399;-77
2022/05/22 04:30:20;;;;;;;19.25;10.98;;;;;;;;;;5122154;27;20432;-77
2022/05/22 04:32:46;;;;;;;22.80;11.98;;;;;;;;;;5117693;28;20400;-78
2022/05/22 04:35:13;;;;;;;19.10;10.90;;;;;;;;;;5122142;27;20408;-78
2022/05/22 04:37:39;;;;;;;17.38;9.88;;;;;;;;;;5120577;28;20410;-77
2022/05/22 04:40:06;;;;;;;15.80;9.90;;;;;;;;;;5099264;28;20446;-78
2022/05/22 04:42:33;;;;;;;19.05;10.27;;;;;;;;;;5101470;28;20416;-78
2022/05/22 04:44:59;;;;;;;19.40;10.23;;;;;;;;;;5114849;28;20780;-79
2022/05/22 04:47:25;;;;;;;18.98;11.02;;;;;;;;;;5129066;28;20824;-78
2022/05/22 04:49:51;;;;;;;22.42;11.07;;;;;;;;;;5087477;28;20920;-78
2022/05/22 04:52:18;;;;;;;22.75;11.32;;;;;;;;;;5137338;28;20446;-78
2022/05/22 04:54:44;;;;;;;22.67;11.23;;;;;;;;;;5109058;28;20433;-78
2022/05/22 04:57:10;;;;;;;22.75;11.18;;;;;;;;;;5120717;28;20427;-78
2022/05/22 04:59:36;;;;;;;21.33;11.38;;;;;;;;;;5123062;28;20420;-77
2022/05/22 05:02:02;;;;;;;22.23;11.13;;;;;;;;;;5116717;28;20422;-77
2022/05/22 05:04:28;;;;;;;22.98;11.45;;;;;;;;;;5128055;28;20432;-78
2022/05/22 05:06:54;;;;;;;24.90;10.88;;;;;;;;;;5119097;28;20459;-78
2022/05/22 05:09:21;;;;;;;27.98;12.27;;;;;;;;;;5115971;28;20421;-78
2022/05/22 05:11:47;;;;;;;23.27;12.57;;;;;;;;;;5139546;28;20402;-77
2022/05/22 05:14:13;;;;;;;24.87;12.27;;;;;;;;;;5117097;28;20737;-77
2022/05/22 05:16:39;;;;;;;28.42;12.02;;;;;;;;;;5116770;28;20412;-77
2022/05/22 05:19:06;;;;;;;23.15;11.38;;;;;;;;;;5112868;28;20418;-77
2022/05/22 05:21:32;;;;;;;21.00;10.77;;;;;;;;;;5137749;28;20787;-77
2022/05/22 05:23:58;;;;;;;23.58;11.30;;;;;;;;;;5125480;28;20437;-77
2022/05/22 05:26:24;;;;;;;23.88;11.05;;;;;;;;;;5106276;28;20497;-78
2022/05/22 05:28:50;;;;;;;23.02;11.25;;;;;;;;;;5119328;27;20398;-78
2022/05/22 05:31:16;;;;;;;27.95;11.07;;;;;;;;;;5134576;27;20422;-77
2022/05/22 05:33:42;;;;;;;25.07;10.57;;;;;;;;;;5115668;28;20790;-77
2022/05/22 05:36:09;;;;;;;20.23;9.98;;;;;;;;;;5114770;28;20416;-77
2022/05/22 05:38:35;;;;;;;22.83;10.38;;;;;;;;;;5137218;27;20403;-77
2022/05/22 05:41:01;;;;;;;21.23;10.00;;;;;;;;;;5105214;28;20412;-78
2022/05/22 05:43:27;;;;;;;21.23;9.52;;;;;;;;;;5103503;27;20414;-77
2022/05/22 05:45:53;;;;;;;23.77;9.95;;;;;;;;;;5122013;27;20395;-77
2022/05/22 05:48:19;;;;;;;18.70;9.10;;;;;;;;;;5138910;27;20948;-77
2022/05/22 05:50:46;;;;;;;19.37;9.23;;;11.60;99.90;;;;;;5103375;28;20569;-77
2022/05/22 05:53:12;;;;;;;19.98;9.52;;;;;;;;;;5115331;27;20412;-77
2022/05/22 05:55:38;;;;;;;18.95;9.38;;;;;;;;;;5122652;27;20500;-77
2022/05/22 05:58:04;;;;;;;20.42;9.45;;;;;;;;;;5123598;27;20436;-76
2022/05/22 06:00:31;;;;;;;18.95;9.25;;;;;;;;;;5124094;27;20422;-76
2022/05/22 06:02:57;;;;;;;20.25;9.07;;;;;;;;;;5102795;28;20418;-77
2022/05/22 06:05:23;;;;;;;21.45;8.93;;;;;;;;;;5120112;27;20524;-77
2022/05/22 06:07:50;;;;;;;27.15;10.43;;;;;;;;;;5102996;27;20416;-77
2022/05/22 06:10:17;;;;;;;18.92;8.02;;;;;;;;;;5085289;27;20425;-77
2022/05/22 06:12:43;;;;;;;19.10;8.40;;;;;;;;;;5123622;27;20497;-77
2022/05/22 06:15:09;;;;;;;20.55;8.05;;;;;;;;;;5102362;28;20898;-76
2022/05/22 06:17:37;;;;;;;18.27;8.32;;;;;;;;;;5105799;27;20411;-78
2022/05/22 06:20:06;;;;;;;20.90;7.72;;;;;;;;;;5140711;27;21081;-78
2022/05/22 06:22:34;;;;;;;18.63;8.03;;;;;;;;;;5099708;28;20882;-78
2022/05/22 06:25:01;;;;;;;20.75;7.47;;;12.90;99.90;;;;;;5115533;27;20430;-77
2022/05/22 06:27:26;;;;;;;19.15;7.60;;;13.00;99.90;;;;;;5121262;27;20890;-77
2022/05/22 06:29:52;;;;;;;15.63;7.15;;;;;;;;;;5138753;27;20414;-77
2022/05/22 06:32:20;;;;;;;19.57;7.80;;;13.30;99.90;;;;;;5105143;27;20841;-77
2022/05/22 06:34:47;;;;;;;17.63;7.80;;;;;;;;;;5135381;27;20427;-77
2022/05/22 06:37:17;;;;;;;18.63;7.45;;;;;;;;;;5118662;27;20425;-77
2022/05/22 06:39:49;;;;;;;17.30;7.32;;;13.70;99.90;;;;;;5123888;27;20413;-77
2022/05/22 06:42:17;;;;;;;15.48;7.53;;;;;;;;;;5100904;28;20413;-78
2022/05/22 06:44:43;;;;;;;14.30;7.28;;;;;;;;;;5095388;28;20420;-77
2022/05/22 06:47:09;;;;;;;15.63;6.80;;;;;;;;;;5130260;27;20422;-78
2022/05/22 06:49:35;;;;;;;12.85;6.43;;;;;;;;;;5128748;27;20878;-78
2022/05/22 06:52:02;;;;;;;17.10;6.88;;;;;;;;;;5082274;28;20443;-76
2022/05/22 06:54:30;;;;;;;12.93;5.65;;;;;;;;;;5126608;27;20443;-77
2022/05/22 06:56:57;;;;;;;15.32;6.05;;;;;;;;;;5105208;27;20425;-77
2022/05/22 06:59:24;;;;;;;13.05;6.22;;;;;;;;;;5116683;27;20425;-77
2022/05/22 07:01:50;;;;;;;14.07;5.70;;;;;;;;;;5108041;27;20410;-78
2022/05/22 07:04:16;;;;;;;14.48;5.60;;;;;;;;;;5112590;27;20428;-78
2022/05/22 07:06:43;;;;;;;15.55;5.30;;;;;;;;;;5132583;27;20465;-78
2022/05/22 07:09:08;;;;;;;14.90;5.30;;;15.40;99.90;;;;;;5077218;28;20536;-78
2022/05/22 07:11:38;;;;;;;13.73;4.80;;;15.40;99.90;;;;;;5092546;28;20424;-79
2022/05/22 07:14:04;;;;;;;14.00;4.90;;;;;;;;;;5115818;28;20450;-78
2022/05/22 07:16:31;;;;;;;10.98;4.03;;;;;;;;;;5111293;27;20504;-77
2022/05/22 07:18:57;;;;;;;10.38;4.10;;;;;;;;;;5134905;27;20415;-77
2022/05/22 07:21:24;;;;;;;13.10;4.50;;;;;;;;;;5126423;27;20495;-77
2022/05/22 07:23:51;;;;;;;11.83;4.00;;;;;;;;;;5121401;27;20442;-76
2022/05/22 07:26:19;;;;;;;10.35;3.17;;;;;;;;;;5115318;27;20427;-78
2022/05/22 07:28:45;;;;;;;7.43;3.17;;;15.90;99.90;;;;;;5118396;27;20417;-77
2022/05/22 07:31:19;;;;;;;9.18;3.50;;;;;;;;;;5098022;28;20406;-78
2022/05/22 07:33:45;;;;;;;10.75;3.53;;;;;;;;;;5097958;28;20426;-77
2022/05/22 07:36:11;;;;;;;11.35;2.53;;;;;;;;;;5106383;27;20420;-77
2022/05/22 07:38:37;;;;;;;11.25;3.50;;;;;;;;;;5123317;27;20501;-78
2022/05/22 07:41:04;;;;;;;11.02;3.47;;;;;;;;;;5085824;28;20922;-78
2022/05/22 07:43:30;;;;;;;11.47;3.70;;;;;;;;;;5090252;28;20417;-77
2022/05/22 07:45:56;;;;;;;10.50;3.88;;;;;;;;;;5105747;27;20419;-78
2022/05/22 07:48:23;;;;;;;10.70;3.60;;;;;;;;;;5104214;27;20459;-78
2022/05/22 07:50:59;;;;;;;11.45;3.55;;;;;;;;;;5086408;28;20472;-71
2022/05/22 07:53:25;;;;;;;9.20;3.10;;;17.10;99.90;;;;;;5114559;27;20451;-72
2022/05/22 07:55:51;;;;;;;7.97;3.28;;;;;;;;;;5100504;28;20467;-71
2022/05/22 07:58:18;;;;;;;11.98;3.35;;;;;;;;;;5122755;27;20426;-71
2022/05/22 08:00:44;;;;;;;9.77;3.30;;;17.10;99.90;;;;;;5112307;27;20506;-71
2022/05/22 08:03:11;;;;;;;9.77;3.53;;;;;;;;;;5117692;28;20970;-71
2022/05/22 08:05:37;;;;;;;9.43;3.63;;;;;;;;;;5130319;27;20426;-71
2022/05/22 08:08:03;;;;;;;7.05;3.10;;;;;;;;;;5130137;27;20433;-71
2022/05/22 08:10:30;;;;;;;10.70;3.50;;;;;;;;;;5138712;27;21027;-70
2022/05/22 08:12:56;;;;;;;10.52;3.72;;;;;;;;;;5134921;27;20426;-71
2022/05/22 08:15:24;;;;;;;11.93;3.60;;;;;;;;;;5109191;27;20420;-71
2022/05/22 08:17:50;;;;;;;14.10;3.78;;;;;;;;;;5117706;27;20418;-71
2022/05/22 08:20:18;;;;;;;7.23;3.10;;;;;;;;;;5098367;28;20394;-70
2022/05/22 08:22:45;;;;;;;11.02;3.15;;;17.90;99.90;;;;;;5108640;27;20480;-71
2022/05/22 08:25:16;;;;;;;7.15;3.20;;;;;;;;;;5101209;27;20457;-71
2022/05/22 08:27:42;;;;;;;8.40;3.25;;;;;;;;;;5097654;28;20451;-70
2022/05/22 08:30:09;;;;;;;8.88;3.55;;;;;;;;;;5113396;27;20423;-70
2022/05/22 08:32:39;;;;;;;8.45;3.00;;;;;;;;;;5118906;28;20468;-71
2022/05/22 08:35:06;;;;;;;10.68;3.70;;;;;;;;;;5110272;28;20570;-71
2022/05/22 08:37:34;;;;;;;10.73;3.17;;;;;;;;;;5109545;28;20421;-71
2022/05/22 08:40:00;;;;;;;8.63;3.40;;;;;;;;;;5134378;27;20774;-71
2022/05/22 08:42:47;;;;;;;10.50;3.38;;;;;;;;;;5119816;28;20404;-71
2022/05/22 08:45:19;;;;;;;8.80;3.45;;;;;;;;;;5117141;28;20434;-71
2022/05/22 08:48:04;;;;;;;10.95;3.35;;;17.90;99.90;;;;;;5131492;28;20718;-71
2022/05/22 08:50:32;;;;;;;7.97;3.10;;;;;;;;;;5115066;28;20439;-71
2022/05/22 08:53:22;;;;;;;7.38;3.00;;;18.60;99.90;;;;;;5129291;28;20472;-71
2022/05/22 08:58:57;;;;;;;8.60;3.05;;;;;;;;;;5097474;28;20481;-71
2022/05/22 09:01:38;;;;;;;8.85;3.38;;;;;;;;;;5098034;28;20404;-71
2022/05/22 09:04:28;;;;;;;7.18;2.88;;;;;;;;;;5110109;28;20440;-71
2022/05/22 09:07:03;;;;;;;10.38;3.30;;;;;;;;;;5124334;27;20426;-72
2022/05/22 09:09:31;;;;;;;10.32;3.20;;;;;;;;;;5107734;28;20485;-71
2022/05/22 09:12:33;;;;;;;9.73;3.78;;;;;;;;;;5120738;27;20426;-71
2022/05/22 09:15:04;;;;;;;9.70;3.10;;;;;;;;;;5017355;28;20442;-71
2022/05/22 09:17:40;;;;;;;9.98;3.15;;;;;;;;;;5095820;27;20473;-71
2022/05/22 09:20:21;;;;;;;8.35;3.22;;;;;;;;;;5117873;27;20420;-70
2022/05/22 09:22:47;;;;;;;8.48;3.38;;;;;;;;;;5106803;27;20424;-70
2022/05/22 09:25:22;;;;;;;6.88;3.40;;;;;;;;;;5118727;27;20428;-72
2022/05/22 09:27:48;;;;;;;9.18;2.80;;;;;;;;;;5119592;27;20432;-72
2022/05/22 09:30:18;;;;;;;10.07;3.00;;;;;;;;;;5141115;27;20401;-72
2022/05/22 09:32:44;;;;;;;8.25;2.50;;;;;;;;;;5116148;27;20968;-72
2022/05/22 09:35:25;;;;;;;8.68;2.50;;;;;;;;;;5132108;27;20422;-72
2022/05/22 09:38:25;;;;;;;10.23;3.10;;;19.40;99.90;;;;;;5122071;27;20443;-69
2022/05/22 09:40:57;;;;;;;10.77;3.30;;;;;;;;;;5097520;28;20424;-70
2022/05/22 09:43:41;;;;;;;8.67;2.90;;;;;;;;;;5117346;27;20431;-68
2022/05/22 09:46:23;;;;;;;8.40;2.95;;;;;;;;;;5115211;27;20447;-68
2022/05/22 09:49:04;;;;;;;7.95;2.47;;;;;;;;;;5109454;27;20424;-68
2022/05/22 09:52:00;;;;;;;7.60;2.50;;;20.10;99.90;;;;;;5112757;27;20452;-68
2022/05/22 09:54:45;;;;;;;7.35;2.70;;;;;;;;;;5110644;27;20435;-69
2022/05/22 09:57:37;;;;;;;6.65;2.30;;;20.30;99.90;;;;;;5110099;27;20416;-69
2022/05/22 10:00:17;;;;;;;6.53;2.47;;;;;;;;;;5107498;27;20525;-70
2022/05/22 10:02:52;;;;;;;7.38;2.00;;;20.60;99.90;;;;;;5118698;27;20422;-72
2022/05/22 10:05:30;;;;;;;6.90;2.60;;;;;;;;;;5110906;27;20432;-72
2022/05/22 10:08:30;;;;;;;7.63;2.60;;;21.20;99.90;;;;;;5108364;27;20437;-71
2022/05/22 10:11:15;;;;;;;7.18;2.70;;;20.70;99.90;;;;;;5105869;28;20430;-72
2022/05/22 10:14:17;;;;;;;6.60;2.47;;;20.20;99.90;;;;;;5083748;28;20810;-72
2022/05/22 10:17:09;;;;;;;6.88;2.38;;;20.00;99.90;;;;;;5110239;27;20513;-72
2022/05/22 10:20:00;;;;;;;6.93;2.50;;;20.00;99.90;;;;;;5095954;28;20446;-72
2022/05/22 10:22:29;;;;;;;8.65;2.30;;;;;;;;;;5125423;27;20418;-72
2022/05/22 10:25:31;;;;;;;6.00;2.00;;;21.20;99.90;;;;;;5109343;27;20913;-72
2022/05/22 10:28:12;;;;;;;6.95;2.22;;;21.60;99.90;;;;;;5110096;27;20458;-72
2022/05/22 10:31:01;;;;;;;4.82;2.20;;;21.90;99.90;;;;;;5128868;27;20453;-73
2022/05/22 10:33:35;;;;;;;7.03;2.03;;;22.10;99.90;;;;;;5116223;27;20438;-72
2022/05/22 10:36:12;;;;;;;7.03;2.20;;;22.10;99.90;;;;;;5109909;27;20434;-69
2022/05/22 10:38:46;;;;;;;8.40;2.17;;;22.30;99.90;;;;;;5112609;27;20426;-70
2022/05/22 10:44:23;;;;;;;7.35;2.60;;;21.90;99.90;;;;;;5121760;27;20435;-70
2022/05/22 10:46:52;;;;;;;5.95;2.10;;;22.00;99.90;;;;;;5118951;27;20432;-69
2022/05/22 10:49:23;;;;;;;6.45;2.20;;;21.80;99.90;;;;;;5126034;27;20420;-70
2022/05/22 10:51:58;;;;;;;6.38;1.90;;;22.10;99.90;;;;;;5122115;27;20463;-69
2022/05/22 10:54:29;;;;;;;6.90;2.38;;;21.60;99.90;;;;;;5102436;28;20502;-69
2022/05/22 10:57:06;;;;;;;6.75;2.10;;;21.40;99.90;;;;;;5106873;27;20852;-69
2022/05/22 10:59:32;;;;;;;7.35;2.20;;;21.70;99.90;;;;;;5117785;28;20423;-69
2022/05/22 11:02:04;;;;;;;5.25;2.20;;;21.60;99.90;;;;;;5114762;27;20777;-68
2022/05/22 11:04:43;;;;;;;6.13;2.55;;;21.30;99.90;;;;;;5112267;27;20453;-69
2022/05/22 11:07:10;;;;;;;7.20;2.42;;;21.00;99.90;;;;;;5109874;27;20434;-69
2022/05/22 11:09:45;;;;;;;10.88;3.08;;;21.20;99.90;;;;;;5111125;27;20505;-69
2022/05/22 11:12:20;;;;;;;6.95;2.20;;;21.00;99.90;;;;;;5123517;27;20422;-68
2022/05/22 11:14:46;;;;;;;7.55;2.30;;;20.60;99.90;;;;;;5116685;27;20505;-69
2022/05/22 11:17:23;;;;;;;7.65;2.30;;;21.00;99.90;;;;;;5122919;27;20426;-68
2022/05/22 11:19:54;;;;;;;5.60;2.05;;;20.80;99.90;;;;;;5107196;27;20420;-69
2022/05/22 11:22:31;;;;;;;5.20;1.83;;;21.00;99.90;;;;;;5117403;27;20869;-69
2022/05/22 11:25:48;;;;;;;6.28;2.08;;;21.10;99.90;;;;;;5111474;28;20530;-70
2022/05/22 11:28:41;;;;;;;5.37;2.07;;;20.90;99.90;;;;;;5095813;27;20458;-71
2022/05/22 11:31:41;;;;;;;6.82;2.10;;;20.60;99.90;;;;;;5117951;27;20450;-72
2022/05/22 11:34:26;;;;;;;6.00;1.95;;;;;;;;;;5093979;27;20460;-69
2022/05/22 11:36:55;;;;;;;6.82;3.00;;;;;;;;;;5103072;27;20435;-70
2022/05/22 11:39:24;;;;;;;6.65;2.10;;;21.40;99.90;;;;;;5095066;27;20823;-69
2022/05/22 11:42:15;;;;;;;5.50;2.22;;;21.60;99.90;;;;;;5121557;27;20503;-69
2022/05/22 11:44:57;;;;;;;5.80;2.10;;;22.00;99.90;;;;;;5096628;28;20443;-69
2022/05/22 11:47:34;;;;;;;7.10;2.55;;;22.50;99.90;;;;;;5104577;27;20425;-69
2022/05/22 11:50:12;;;;;;;6.45;2.13;;;22.60;99.90;;;;;;5121512;27;20493;-69
2022/05/22 11:53:11;;;;;;;6.28;2.08;;;22.40;99.90;;;;;;5093747;28;20422;-68
2022/05/22 11:55:49;;;;;;;5.90;2.40;;;22.50;99.90;;;;;;5113752;27;20436;-69
2022/05/22 11:58:32;;;;;;;5.90;2.30;;;22.40;99.90;;;;;;5112895;27;20417;-69
2022/05/22 12:01:30;;;;;;;7.47;2.40;;;22.00;99.90;;;;;;5113187;28;20500;-71
2022/05/22 12:04:02;;;;;;;5.78;2.22;;;22.00;99.90;;;;;;5097155;28;20483;-70
2022/05/22 12:06:43;;;;;;;5.17;1.80;;;22.00;99.90;;;;;;5125776;27;20469;-71
2022/05/22 12:09:33;;;;;;;5.18;1.92;;;22.20;99.90;;;;;;5104571;27;20854;-71
2022/05/22 12:12:23;;;;;;;6.32;1.77;;;21.60;99.90;;;;;;5106539;27;21082;-68
2022/05/22 12:15:03;;;;;;;4.78;1.80;;;21.50;99.90;;;;;;5110461;27;20424;-69
2022/05/22 12:17:53;;;;;;;6.13;2.10;;;22.00;99.90;;;;;;5109604;28;20962;-68
2022/05/22 12:20:31;;;;;;;6.05;1.90;;;21.90;99.90;;;;;;5109583;27;20444;-67
2022/05/22 12:23:25;;;;;;;6.32;2.10;;;21.40;99.90;;;;;;5122711;27;20428;-68
2022/05/22 12:25:55;;;;;;;8.32;2.22;;;;;;;;;;5109043;28;20428;-68
2022/05/22 12:28:34;;;;;;;7.00;2.20;;;;;;;;;;5119200;27;20773;-67
2022/05/22 12:31:03;;;;;;;7.32;2.28;;;;;;;;;;5116574;27;20417;-67
2022/05/22 12:33:33;;;;;;;8.68;2.67;;;20.50;99.90;;;;;;5120950;27;20407;-67
2022/05/22 12:36:00;;;;;;;6.68;1.90;;;21.70;99.90;;;;;;5121985;27;20422;-66
2022/05/22 12:38:26;;;;;;;5.63;2.00;;;20.70;99.90;;;;;;5118762;27;20422;-67
2022/05/22 12:41:05;;;;;;;7.30;2.30;;;;;;;;;;5132094;27;20819;-68
2022/05/22 12:43:32;;;;;;;6.68;1.90;;;21.10;99.90;;;;;;5132256;27;20486;-67
2022/05/22 12:46:01;;;;;;;5.45;2.10;;;20.80;99.90;;;;;;5119907;28;20920;-67
2022/05/22 12:48:33;;;;;;;7.50;2.53;;;;;;;;;;5122769;28;20450;-67
2022/05/22 12:51:33;;;;;;;6.80;1.98;;;21.60;99.90;;;;;;5117011;27;20412;-67
2022/05/22 12:54:30;;;;;;;6.35;2.10;;;21.30;99.90;;;;;;5113515;28;20427;-67
2022/05/22 12:57:13;;;;;;;6.32;2.33;;;21.90;99.90;;;;;;5097141;28;20410;-67
2022/05/22 12:59:50;;;;;;;7.13;2.20;;;;;;;;;;5123793;28;20438;-67
2022/05/22 13:02:34;;;;;;;5.75;1.80;;;;;;;;;;5116196;28;20424;-67
2022/05/22 13:05:01;;;;;;;6.47;1.90;;;;;;;;;;5104099;28;20435;-67
2022/05/22 13:07:35;;;;;;;6.72;1.83;;;;;;;;;;5109464;28;20427;-67
2022/05/22 13:10:33;;;;;;;4.82;1.92;;;20.90;99.90;;;;;;5128408;28;20416;-67
2022/05/22 13:13:12;;;;;;;5.78;2.00;;;21.00;99.90;;;;;;5078347;28;20422;-69
2022/05/22 13:15:51;;;;;;;6.18;1.88;;;;;;;;;;5108416;28;20420;-66
2022/05/22 13:18:21;;;;;;;5.35;1.95;;;20.90;99.90;;;;;;5114729;28;20412;-67
2022/05/22 13:20:59;;;;;;;6.15;1.92;;;20.80;99.90;;;;;;5114767;28;20416;-67
2022/05/22 13:23:28;;;;;;;6.93;2.75;;;;;;;;;;5113395;28;20451;-73
2022/05/22 13:26:28;;;;;;;4.97;1.70;;;20.70;99.90;;;;;;5111397;28;20424;-70
2022/05/22 13:29:14;;;;;;;5.30;1.80;;;;;;;;;;5058403;28;20432;-72
2022/05/22 13:31:53;;;;;;;4.83;1.70;;;20.20;99.90;;;;;;5111692;28;21032;-69
2022/05/22 13:34:30;;;;;;;5.82;1.73;;;20.20;99.90;;;;;;5108395;28;20502;-69
2022/05/22 13:37:00;;;;;;;4.72;1.67;;;20.20;99.90;;;;;;5109276;28;20801;-70
2022/05/22 13:39:49;;;;;;;5.70;2.00;;;;;;;;;;5095917;28;20507;-70
2022/05/22 13:42:29;;;;;;;4.63;1.75;;;;;;;;;;5109263;28;20439;-69
2022/05/22 13:45:15;;;;;;;5.67;1.83;;;;;;;;;;5120601;28;20523;-70
2022/05/22 13:48:06;;;;;;;7.45;2.15;;;21.00;99.90;;;;;;5104799;28;20430;-70
2022/05/22 13:53:49;;;;;;;6.03;1.90;;;;;;;;;;5100669;27;20471;-69
2022/05/22 13:56:16;;;;;;;5.60;2.05;;;20.90;99.90;;;;;;5115278;27;20441;-68
2022/05/22 13:58:43;;;;;;;5.35;2.00;;;;;;;;;;5107695;27;20429;-68
2022/05/22 14:01:19;;;;;;;5.25;2.03;;;20.60;99.90;;;;;;5112895;27;20445;-68
2022/05/22 14:04:00;;;;;;;6.57;1.77;;;;;;;;;;5109401;27;20422;-69
2022/05/22 14:06:33;;;;;;;6.10;1.90;;;21.00;99.90;;;;;;5121143;27;20424;-69
2022/05/22 14:09:00;;;;;;;6.70;1.90;;;;;;;;;;5118017;27;20937;-69
2022/05/22 14:11:30;;;;;;;6.57;1.95;;;;;;;;;;5107759;28;20434;-69
2022/05/22 14:13:59;;;;;;;5.90;1.90;;;;;;;;;;5111507;27;20421;-69
2022/05/22 14:16:34;;;;;;;5.70;2.03;;;20.40;99.90;;;;;;5113895;27;20408;-69
2022/05/22 14:19:05;;;;;;;6.72;1.70;;;;;;;;;;5120400;28;20421;-67
2022/05/22 14:21:39;;;;;;;6.10;1.98;;;20.70;99.90;;;;;;5114030;28;20507;-69
2022/05/22 14:27:09;;;;;;;5.28;1.63;;;20.70;99.90;;;;;;5118260;28;20421;-69
2022/05/22 14:29:35;;;;;;;5.07;1.60;;;21.80;99.90;;;;;;5116202;28;20428;-68
2022/05/22 14:32:01;;;;;;;5.40;1.60;;;20.50;99.90;;;;;;5099512;28;20422;-69